sensor_id;sensor_type;location;lat;lon;timestamp;P1;durP1;ratioP1;P2;durP2;ratioP2
22778;SDS011;11556;51.194;3.800;2023-06-05T00:01:37;7.32;;;3.40;;
22778;SDS011;11556;51.194;3.800;2023-06-05T00:04:03;5.82;;;3.20;;
22778;SDS011;11556;51.194;3.800;2023-06-05T00:06:29;10.52;;;3.25;;
22778;SDS011;11556;51.194;3.800;2023-06-05T00:08:56;7.90;;;3.38;;
22778;SDS011;11556;51.194;3.800;2023-06-05T00:11:22;6.93;;;3.10;;
22778;SDS011;11556;51.194;3.800;2023-06-05T00:13:48;6.00;;;3.20;;
22778;SDS011;11556;51.194;3.800;2023-06-05T00:16:14;6.72;;;3.35;;
22778;SDS011;11556;51.194;3.800;2023-06-05T00:18:41;8.75;;;3.20;;
22778;SDS011;11556;51.194;3.800;2023-06-05T00:21:08;7.55;;;3.20;;
22778;SDS011;11556;51.194;3.800;2023-06-05T00:23:35;7.70;;;3.17;;
22778;SDS011;11556;51.194;3.800;2023-06-05T00:26:00;6.00;;;3.05;;
22778;SDS011;11556;51.194;3.800;2023-06-05T00:28:26;7.00;;;3.55;;
22778;SDS011;11556;51.194;3.800;2023-06-05T00:30:52;7.03;;;3.08;;
22778;SDS011;11556;51.194;3.800;2023-06-05T00:33:17;6.00;;;3.50;;
22778;SDS011;11556;51.194;3.800;2023-06-05T00:35:43;4.78;;;3.45;;
22778;SDS011;11556;51.194;3.800;2023-06-05T00:38:08;4.50;;;3.22;;
22778;SDS011;11556;51.194;3.800;2023-06-05T00:40:34;7.55;;;3.60;;
22778;SDS011;11556;51.194;3.800;2023-06-05T00:43:00;11.85;;;3.85;;
22778;SDS011;11556;51.194;3.800;2023-06-05T00:45:25;6.57;;;3.85;;
22778;SDS011;11556;51.194;3.800;2023-06-05T00:47:51;4.50;;;3.67;;
22778;SDS011;11556;51.194;3.800;2023-06-05T00:50:17;7.72;;;3.78;;
22778;SDS011;11556;51.194;3.800;2023-06-05T00:52:46;5.57;;;3.80;;
22778;SDS011;11556;51.194;3.800;2023-06-05T00:55:13;5.43;;;3.65;;
22778;SDS011;11556;51.194;3.800;2023-06-05T00:57:39;6.72;;;4.18;;
22778;SDS011;11556;51.194;3.800;2023-06-05T01:00:08;7.32;;;4.00;;
22778;SDS011;11556;51.194;3.800;2023-06-05T01:02:37;8.13;;;4.20;;
22778;SDS011;11556;51.194;3.800;2023-06-05T01:05:03;6.25;;;4.18;;
22778;SDS011;11556;51.194;3.800;2023-06-05T01:07:29;6.80;;;3.95;;
22778;SDS011;11556;51.194;3.800;2023-06-05T01:09:58;7.60;;;3.83;;
22778;SDS011;11556;51.194;3.800;2023-06-05T01:15:22;11.23;;;3.90;;
22778;SDS011;11556;51.194;3.800;2023-06-05T01:17:53;7.38;;;3.60;;
22778;SDS011;11556;51.194;3.800;2023-06-05T01:20:31;8.00;;;4.32;;
22778;SDS011;11556;51.194;3.800;2023-06-05T01:23:07;8.30;;;4.28;;
22778;SDS011;11556;51.194;3.800;2023-06-05T01:25:33;6.07;;;4.35;;
22778;SDS011;11556;51.194;3.800;2023-06-05T01:28:13;6.70;;;4.53;;
22778;SDS011;11556;51.194;3.800;2023-06-05T01:30:46;6.78;;;4.22;;
22778;SDS011;11556;51.194;3.800;2023-06-05T01:33:30;8.55;;;4.32;;
22778;SDS011;11556;51.194;3.800;2023-06-05T01:36:10;11.50;;;4.82;;
22778;SDS011;11556;51.194;3.800;2023-06-05T01:38:36;6.43;;;4.15;;
22778;SDS011;11556;51.194;3.800;2023-06-05T01:41:05;5.95;;;4.40;;
22778;SDS011;11556;51.194;3.800;2023-06-05T01:43:32;6.32;;;4.47;;
22778;SDS011;11556;51.194;3.800;2023-06-05T01:45:59;7.20;;;4.28;;
22778;SDS011;11556;51.194;3.800;2023-06-05T01:48:26;6.95;;;4.45;;
22778;SDS011;11556;51.194;3.800;2023-06-05T01:50:58;9.90;;;4.93;;
22778;SDS011;11556;51.194;3.800;2023-06-05T01:53:25;8.98;;;5.13;;
22778;SDS011;11556;51.194;3.800;2023-06-05T01:55:52;9.00;;;4.60;;
22778;SDS011;11556;51.194;3.800;2023-06-05T01:58:21;7.65;;;4.75;;
22778;SDS011;11556;51.194;3.800;2023-06-05T02:00:48;8.65;;;4.55;;
22778;SDS011;11556;51.194;3.800;2023-06-05T02:03:14;8.18;;;4.65;;
22778;SDS011;11556;51.194;3.800;2023-06-05T02:05:43;10.35;;;5.03;;
22778;SDS011;11556;51.194;3.800;2023-06-05T02:08:08;9.43;;;5.43;;
22778;SDS011;11556;51.194;3.800;2023-06-05T02:10:35;10.07;;;4.78;;
22778;SDS011;11556;51.194;3.800;2023-06-05T02:13:11;9.00;;;5.10;;
22778;SDS011;11556;51.194;3.800;2023-06-05T02:15:36;9.40;;;5.20;;
22778;SDS011;11556;51.194;3.800;2023-06-05T02:18:03;8.63;;;5.10;;
22778;SDS011;11556;51.194;3.800;2023-06-05T02:20:29;9.77;;;5.32;;
22778;SDS011;11556;51.194;3.800;2023-06-05T02:22:56;6.80;;;5.20;;
22778;SDS011;11556;51.194;3.800;2023-06-05T02:25:22;7.40;;;4.88;;
22778;SDS011;11556;51.194;3.800;2023-06-05T02:27:51;8.60;;;5.15;;
22778;SDS011;11556;51.194;3.800;2023-06-05T02:30:17;8.35;;;5.13;;
22778;SDS011;11556;51.194;3.800;2023-06-05T02:32:42;9.68;;;5.60;;
22778;SDS011;11556;51.194;3.800;2023-06-05T02:35:11;7.55;;;5.18;;
22778;SDS011;11556;51.194;3.800;2023-06-05T02:37:38;9.85;;;5.85;;
22778;SDS011;11556;51.194;3.800;2023-06-05T02:40:11;10.27;;;5.60;;
22778;SDS011;11556;51.194;3.800;2023-06-05T02:42:38;9.52;;;5.28;;
22778;SDS011;11556;51.194;3.800;2023-06-05T02:45:05;9.32;;;5.07;;
22778;SDS011;11556;51.194;3.800;2023-06-05T02:47:32;7.03;;;5.38;;
22778;SDS011;11556;51.194;3.800;2023-06-05T02:49:58;11.23;;;5.20;;
22778;SDS011;11556;51.194;3.800;2023-06-05T02:52:24;7.95;;;5.47;;
22778;SDS011;11556;51.194;3.800;2023-06-05T02:54:51;8.82;;;5.18;;
22778;SDS011;11556;51.194;3.800;2023-06-05T02:57:16;12.27;;;5.53;;
22778;SDS011;11556;51.194;3.800;2023-06-05T02:59:43;8.57;;;5.57;;
22778;SDS011;11556;51.194;3.800;2023-06-05T03:02:09;10.10;;;5.30;;
22778;SDS011;11556;51.194;3.800;2023-06-05T03:04:36;12.77;;;5.90;;
22778;SDS011;11556;51.194;3.800;2023-06-05T03:07:04;10.63;;;5.80;;
22778;SDS011;11556;51.194;3.800;2023-06-05T03:09:30;6.95;;;5.45;;
22778;SDS011;11556;51.194;3.800;2023-06-05T03:11:57;11.43;;;6.20;;
22778;SDS011;11556;51.194;3.800;2023-06-05T03:14:23;8.30;;;5.25;;
22778;SDS011;11556;51.194;3.800;2023-06-05T03:16:48;10.20;;;5.63;;
22778;SDS011;11556;51.194;3.800;2023-06-05T03:19:14;9.90;;;5.97;;
22778;SDS011;11556;51.194;3.800;2023-06-05T03:21:40;11.57;;;5.95;;
22778;SDS011;11556;51.194;3.800;2023-06-05T03:24:07;10.75;;;6.07;;
22778;SDS011;11556;51.194;3.800;2023-06-05T03:26:34;10.80;;;5.95;;
22778;SDS011;11556;51.194;3.800;2023-06-05T03:29:00;10.60;;;5.80;;
22778;SDS011;11556;51.194;3.800;2023-06-05T03:31:25;12.02;;;6.40;;
22778;SDS011;11556;51.194;3.800;2023-06-05T03:33:51;11.75;;;6.13;;
22778;SDS011;11556;51.194;3.800;2023-06-05T03:36:17;10.98;;;5.60;;
22778;SDS011;11556;51.194;3.800;2023-06-05T03:38:43;11.52;;;6.20;;
22778;SDS011;11556;51.194;3.800;2023-06-05T03:41:09;9.70;;;6.20;;
22778;SDS011;11556;51.194;3.800;2023-06-05T03:43:35;7.60;;;5.47;;
22778;SDS011;11556;51.194;3.800;2023-06-05T03:46:01;13.63;;;6.60;;
22778;SDS011;11556;51.194;3.800;2023-06-05T03:48:27;8.27;;;6.00;;
22778;SDS011;11556;51.194;3.800;2023-06-05T03:50:53;11.45;;;5.90;;
22778;SDS011;11556;51.194;3.800;2023-06-05T03:53:21;9.73;;;5.90;;
22778;SDS011;11556;51.194;3.800;2023-06-05T03:55:47;10.82;;;6.10;;
22778;SDS011;11556;51.194;3.800;2023-06-05T03:58:17;9.05;;;5.82;;
22778;SDS011;11556;51.194;3.800;2023-06-05T04:00:44;10.38;;;6.70;;
22778;SDS011;11556;51.194;3.800;2023-06-05T04:03:14;13.88;;;6.70;;
22778;SDS011;11556;51.194;3.800;2023-06-05T04:05:40;11.63;;;6.63;;
22778;SDS011;11556;51.194;3.800;2023-06-05T04:08:06;11.63;;;6.18;;
22778;SDS011;11556;51.194;3.800;2023-06-05T04:10:34;12.52;;;6.60;;
22778;SDS011;11556;51.194;3.800;2023-06-05T04:13:00;11.43;;;6.07;;
22778;SDS011;11556;51.194;3.800;2023-06-05T04:15:27;10.88;;;6.07;;
22778;SDS011;11556;51.194;3.800;2023-06-05T04:17:53;10.45;;;5.75;;
22778;SDS011;11556;51.194;3.800;2023-06-05T04:20:18;9.57;;;6.45;;
22778;SDS011;11556;51.194;3.800;2023-06-05T04:22:44;12.38;;;6.13;;
22778;SDS011;11556;51.194;3.800;2023-06-05T04:25:10;9.68;;;6.05;;
22778;SDS011;11556;51.194;3.800;2023-06-05T04:27:41;12.13;;;5.95;;
22778;SDS011;11556;51.194;3.800;2023-06-05T04:30:10;11.40;;;6.10;;
22778;SDS011;11556;51.194;3.800;2023-06-05T04:32:37;8.65;;;5.78;;
22778;SDS011;11556;51.194;3.800;2023-06-05T04:35:04;10.48;;;5.80;;
22778;SDS011;11556;51.194;3.800;2023-06-05T04:37:37;10.50;;;5.72;;
22778;SDS011;11556;51.194;3.800;2023-06-05T04:40:05;11.45;;;6.20;;
22778;SDS011;11556;51.194;3.800;2023-06-05T04:42:34;13.15;;;6.38;;
22778;SDS011;11556;51.194;3.800;2023-06-05T04:45:02;11.05;;;6.35;;
22778;SDS011;11556;51.194;3.800;2023-06-05T04:47:29;8.55;;;5.88;;
22778;SDS011;11556;51.194;3.800;2023-06-05T04:50:00;9.57;;;5.70;;
22778;SDS011;11556;51.194;3.800;2023-06-05T04:52:28;13.02;;;6.45;;
22778;SDS011;11556;51.194;3.800;2023-06-05T04:54:57;9.02;;;5.85;;
22778;SDS011;11556;51.194;3.800;2023-06-05T04:57:26;8.25;;;5.85;;
22778;SDS011;11556;51.194;3.800;2023-06-05T04:59:53;11.25;;;5.45;;
22778;SDS011;11556;51.194;3.800;2023-06-05T05:02:19;10.52;;;5.30;;
22778;SDS011;11556;51.194;3.800;2023-06-05T05:04:45;10.10;;;5.05;;
22778;SDS011;11556;51.194;3.800;2023-06-05T05:07:11;8.85;;;5.47;;
22778;SDS011;11556;51.194;3.800;2023-06-05T05:09:40;8.68;;;5.30;;
22778;SDS011;11556;51.194;3.800;2023-06-05T05:12:07;7.90;;;5.28;;
22778;SDS011;11556;51.194;3.800;2023-06-05T05:14:33;7.07;;;4.88;;
22778;SDS011;11556;51.194;3.800;2023-06-05T05:16:58;9.88;;;5.03;;
22778;SDS011;11556;51.194;3.800;2023-06-05T05:19:26;6.72;;;4.72;;
22778;SDS011;11556;51.194;3.800;2023-06-05T05:21:52;7.85;;;4.93;;
22778;SDS011;11556;51.194;3.800;2023-06-05T05:24:17;6.93;;;5.28;;
22778;SDS011;11556;51.194;3.800;2023-06-05T05:26:43;7.75;;;5.13;;
22778;SDS011;11556;51.194;3.800;2023-06-05T05:29:09;7.07;;;4.90;;
22778;SDS011;11556;51.194;3.800;2023-06-05T05:31:34;8.30;;;5.15;;
22778;SDS011;11556;51.194;3.800;2023-06-05T05:34:00;8.57;;;4.70;;
22778;SDS011;11556;51.194;3.800;2023-06-05T05:36:26;6.90;;;4.40;;
22778;SDS011;11556;51.194;3.800;2023-06-05T05:38:53;8.75;;;4.93;;
22778;SDS011;11556;51.194;3.800;2023-06-05T05:41:19;7.85;;;5.05;;
22778;SDS011;11556;51.194;3.800;2023-06-05T05:43:46;7.43;;;4.68;;
22778;SDS011;11556;51.194;3.800;2023-06-05T05:46:11;6.20;;;4.70;;
22778;SDS011;11556;51.194;3.800;2023-06-05T05:48:37;5.95;;;4.60;;
22778;SDS011;11556;51.194;3.800;2023-06-05T05:51:04;7.10;;;5.00;;
22778;SDS011;11556;51.194;3.800;2023-06-05T05:53:30;6.72;;;4.38;;
22778;SDS011;11556;51.194;3.800;2023-06-05T05:55:56;6.22;;;3.97;;
22778;SDS011;11556;51.194;3.800;2023-06-05T05:58:22;6.07;;;4.40;;
22778;SDS011;11556;51.194;3.800;2023-06-05T06:00:48;4.85;;;4.35;;
22778;SDS011;11556;51.194;3.800;2023-06-05T06:03:14;6.57;;;4.53;;
22778;SDS011;11556;51.194;3.800;2023-06-05T06:05:40;7.32;;;4.40;;
22778;SDS011;11556;51.194;3.800;2023-06-05T06:08:06;8.38;;;4.45;;
22778;SDS011;11556;51.194;3.800;2023-06-05T06:10:32;6.25;;;4.57;;
22778;SDS011;11556;51.194;3.800;2023-06-05T06:12:58;9.25;;;3.95;;
22778;SDS011;11556;51.194;3.800;2023-06-05T06:15:25;7.28;;;4.43;;
22778;SDS011;11556;51.194;3.800;2023-06-05T06:17:52;10.10;;;4.03;;
22778;SDS011;11556;51.194;3.800;2023-06-05T06:20:17;6.93;;;4.60;;
22778;SDS011;11556;51.194;3.800;2023-06-05T06:22:43;8.60;;;4.05;;
22778;SDS011;11556;51.194;3.800;2023-06-05T06:25:12;5.22;;;3.90;;
22778;SDS011;11556;51.194;3.800;2023-06-05T06:27:41;7.35;;;3.70;;
22778;SDS011;11556;51.194;3.800;2023-06-05T06:30:13;6.40;;;4.28;;
22778;SDS011;11556;51.194;3.800;2023-06-05T06:32:42;6.80;;;4.25;;
22778;SDS011;11556;51.194;3.800;2023-06-05T06:35:07;4.68;;;4.03;;
22778;SDS011;11556;51.194;3.800;2023-06-05T06:37:33;5.25;;;4.10;;
22778;SDS011;11556;51.194;3.800;2023-06-05T06:39:59;6.53;;;3.75;;
22778;SDS011;11556;51.194;3.800;2023-06-05T06:42:25;5.75;;;4.13;;
22778;SDS011;11556;51.194;3.800;2023-06-05T06:44:54;5.05;;;3.90;;
22778;SDS011;11556;51.194;3.800;2023-06-05T06:47:23;5.50;;;3.95;;
22778;SDS011;11556;51.194;3.800;2023-06-05T06:49:50;6.07;;;3.60;;
22778;SDS011;11556;51.194;3.800;2023-06-05T06:52:16;4.40;;;3.75;;
22778;SDS011;11556;51.194;3.800;2023-06-05T06:54:43;6.10;;;3.63;;
22778;SDS011;11556;51.194;3.800;2023-06-05T06:57:09;5.20;;;3.63;;
22778;SDS011;11556;51.194;3.800;2023-06-05T06:59:35;4.38;;;3.60;;
22778;SDS011;11556;51.194;3.800;2023-06-05T07:02:13;6.88;;;4.43;;
22778;SDS011;11556;51.194;3.800;2023-06-05T07:04:40;7.68;;;4.00;;
22778;SDS011;11556;51.194;3.800;2023-06-05T07:07:08;6.53;;;4.28;;
22778;SDS011;11556;51.194;3.800;2023-06-05T07:09:35;6.00;;;3.60;;
22778;SDS011;11556;51.194;3.800;2023-06-05T07:12:01;4.82;;;3.83;;
22778;SDS011;11556;51.194;3.800;2023-06-05T07:14:30;5.03;;;3.53;;
22778;SDS011;11556;51.194;3.800;2023-06-05T07:16:57;5.80;;;4.10;;
22778;SDS011;11556;51.194;3.800;2023-06-05T07:19:25;5.32;;;4.10;;
22778;SDS011;11556;51.194;3.800;2023-06-05T07:21:58;5.70;;;4.25;;
22778;SDS011;11556;51.194;3.800;2023-06-05T07:24:25;5.80;;;4.40;;
22778;SDS011;11556;51.194;3.800;2023-06-05T07:26:53;5.25;;;3.80;;
22778;SDS011;11556;51.194;3.800;2023-06-05T07:29:20;4.38;;;3.60;;
22778;SDS011;11556;51.194;3.800;2023-06-05T07:31:53;6.60;;;3.83;;
22778;SDS011;11556;51.194;3.800;2023-06-05T07:34:20;6.28;;;4.22;;
22778;SDS011;11556;51.194;3.800;2023-06-05T07:36:47;5.65;;;4.10;;
22778;SDS011;11556;51.194;3.800;2023-06-05T07:39:17;7.95;;;4.10;;
22778;SDS011;11556;51.194;3.800;2023-06-05T07:41:46;7.35;;;4.20;;
22778;SDS011;11556;51.194;3.800;2023-06-05T07:44:12;6.10;;;3.90;;
22778;SDS011;11556;51.194;3.800;2023-06-05T07:46:40;6.28;;;3.88;;
22778;SDS011;11556;51.194;3.800;2023-06-05T07:49:07;9.32;;;5.18;;
22778;SDS011;11556;51.194;3.800;2023-06-05T07:51:34;5.97;;;3.83;;
22778;SDS011;11556;51.194;3.800;2023-06-05T07:54:05;6.03;;;4.13;;
22778;SDS011;11556;51.194;3.800;2023-06-05T07:56:32;6.22;;;4.10;;
22778;SDS011;11556;51.194;3.800;2023-06-05T07:59:01;7.35;;;4.07;;
22778;SDS011;11556;51.194;3.800;2023-06-05T08:01:31;6.63;;;4.15;;
22778;SDS011;11556;51.194;3.800;2023-06-05T08:04:10;4.45;;;3.78;;
22778;SDS011;11556;51.194;3.800;2023-06-05T08:06:36;5.57;;;3.75;;
22778;SDS011;11556;51.194;3.800;2023-06-05T08:09:05;6.25;;;3.30;;
22778;SDS011;11556;51.194;3.800;2023-06-05T08:11:33;4.40;;;3.50;;
22778;SDS011;11556;51.194;3.800;2023-06-05T08:13:59;5.20;;;3.40;;
22778;SDS011;11556;51.194;3.800;2023-06-05T08:16:24;4.82;;;3.15;;
22778;SDS011;11556;51.194;3.800;2023-06-05T08:18:50;4.63;;;3.35;;
22778;SDS011;11556;51.194;3.800;2023-06-05T08:21:15;6.05;;;3.63;;
22778;SDS011;11556;51.194;3.800;2023-06-05T08:23:41;4.53;;;3.08;;
22778;SDS011;11556;51.194;3.800;2023-06-05T08:26:07;5.00;;;3.38;;
22778;SDS011;11556;51.194;3.800;2023-06-05T08:28:38;5.45;;;3.42;;
22778;SDS011;11556;51.194;3.800;2023-06-05T08:31:05;8.45;;;3.40;;
22778;SDS011;11556;51.194;3.800;2023-06-05T08:33:33;4.63;;;3.15;;
22778;SDS011;11556;51.194;3.800;2023-06-05T08:35:59;4.40;;;3.25;;
22778;SDS011;11556;51.194;3.800;2023-06-05T08:38:24;5.88;;;3.58;;
22778;SDS011;11556;51.194;3.800;2023-06-05T08:40:52;5.55;;;3.60;;
22778;SDS011;11556;51.194;3.800;2023-06-05T08:43:24;7.65;;;3.25;;
22778;SDS011;11556;51.194;3.800;2023-06-05T08:45:50;4.38;;;3.55;;
22778;SDS011;11556;51.194;3.800;2023-06-05T08:48:20;6.82;;;3.42;;
22778;SDS011;11556;51.194;3.800;2023-06-05T08:50:49;5.65;;;3.45;;
22778;SDS011;11556;51.194;3.800;2023-06-05T08:53:16;4.68;;;2.95;;
22778;SDS011;11556;51.194;3.800;2023-06-05T08:55:47;4.93;;;3.35;;
22778;SDS011;11556;51.194;3.800;2023-06-05T08:58:15;5.30;;;3.10;;
22778;SDS011;11556;51.194;3.800;2023-06-05T09:00:41;3.90;;;3.05;;
22778;SDS011;11556;51.194;3.800;2023-06-05T09:03:10;5.55;;;3.45;;
22778;SDS011;11556;51.194;3.800;2023-06-05T09:05:39;6.15;;;3.88;;
22778;SDS011;11556;51.194;3.800;2023-06-05T09:08:05;6.07;;;3.45;;
22778;SDS011;11556;51.194;3.800;2023-06-05T09:10:31;6.80;;;3.85;;
22778;SDS011;11556;51.194;3.800;2023-06-05T09:12:58;5.35;;;3.90;;
22778;SDS011;11556;51.194;3.800;2023-06-05T09:15:26;4.47;;;3.42;;
22778;SDS011;11556;51.194;3.800;2023-06-05T09:18:12;4.22;;;3.50;;
22778;SDS011;11556;51.194;3.800;2023-06-05T09:20:40;9.98;;;4.97;;
22778;SDS011;11556;51.194;3.800;2023-06-05T09:23:26;5.63;;;4.00;;
22778;SDS011;11556;51.194;3.800;2023-06-05T09:25:54;8.23;;;5.00;;
22778;SDS011;11556;51.194;3.800;2023-06-05T09:28:24;8.77;;;5.70;;
22778;SDS011;11556;51.194;3.800;2023-06-05T09:33:23;6.95;;;4.07;;
22778;SDS011;11556;51.194;3.800;2023-06-05T09:38:31;9.13;;;5.38;;
22778;SDS011;11556;51.194;3.800;2023-06-05T09:41:13;6.22;;;4.25;;
22778;SDS011;11556;51.194;3.800;2023-06-05T09:43:45;7.80;;;4.75;;
22778;SDS011;11556;51.194;3.800;2023-06-05T09:46:15;6.60;;;3.97;;
22778;SDS011;11556;51.194;3.800;2023-06-05T09:48:41;7.07;;;4.63;;
22778;SDS011;11556;51.194;3.800;2023-06-05T09:51:14;9.43;;;3.97;;
22778;SDS011;11556;51.194;3.800;2023-06-05T09:53:43;6.43;;;4.50;;
22778;SDS011;11556;51.194;3.800;2023-06-05T09:56:16;6.80;;;4.95;;
22778;SDS011;11556;51.194;3.800;2023-06-05T09:58:47;11.82;;;6.45;;
22778;SDS011;11556;51.194;3.800;2023-06-05T10:01:23;7.32;;;5.07;;
22778;SDS011;11556;51.194;3.800;2023-06-05T10:04:02;10.52;;;6.68;;
22778;SDS011;11556;51.194;3.800;2023-06-05T10:06:32;11.88;;;5.45;;
22778;SDS011;11556;51.194;3.800;2023-06-05T10:08:59;9.43;;;6.45;;
22778;SDS011;11556;51.194;3.800;2023-06-05T10:11:25;12.40;;;5.88;;
22778;SDS011;11556;51.194;3.800;2023-06-05T10:13:52;8.48;;;5.43;;
22778;SDS011;11556;51.194;3.800;2023-06-05T10:16:18;11.45;;;6.72;;
22778;SDS011;11556;51.194;3.800;2023-06-05T10:18:48;10.73;;;5.85;;
22778;SDS011;11556;51.194;3.800;2023-06-05T10:21:17;8.60;;;6.25;;
22778;SDS011;11556;51.194;3.800;2023-06-05T10:23:46;9.70;;;6.30;;
22778;SDS011;11556;51.194;3.800;2023-06-05T10:29:33;11.50;;;7.57;;
22778;SDS011;11556;51.194;3.800;2023-06-05T10:32:21;10.63;;;6.70;;
22778;SDS011;11556;51.194;3.800;2023-06-05T10:38:15;8.23;;;4.85;;
22778;SDS011;11556;51.194;3.800;2023-06-05T10:40:19;9.27;;;6.38;;
22778;SDS011;11556;51.194;3.800;2023-06-05T10:42:46;11.88;;;6.63;;
22778;SDS011;11556;51.194;3.800;2023-06-05T10:45:12;10.15;;;5.70;;
22778;SDS011;11556;51.194;3.800;2023-06-05T10:52:44;9.82;;;6.85;;
22778;SDS011;11556;51.194;3.800;2023-06-05T10:55:11;5.35;;;4.75;;
22778;SDS011;11556;51.194;3.800;2023-06-05T10:58:40;7.70;;;5.80;;
22778;SDS011;11556;51.194;3.800;2023-06-05T11:00:38;12.48;;;6.20;;
22778;SDS011;11556;51.194;3.800;2023-06-05T11:03:52;6.07;;;4.40;;
22778;SDS011;11556;51.194;3.800;2023-06-05T11:06:19;7.93;;;6.18;;
22778;SDS011;11556;51.194;3.800;2023-06-05T11:09:05;8.88;;;5.38;;
22778;SDS011;11556;51.194;3.800;2023-06-05T11:11:54;7.28;;;5.32;;
22778;SDS011;11556;51.194;3.800;2023-06-05T11:17:25;8.23;;;5.63;;
22778;SDS011;11556;51.194;3.800;2023-06-05T11:19:55;10.05;;;6.55;;
22778;SDS011;11556;51.194;3.800;2023-06-05T11:22:21;10.98;;;7.40;;
22778;SDS011;11556;51.194;3.800;2023-06-05T11:24:53;9.25;;;5.60;;
22778;SDS011;11556;51.194;3.800;2023-06-05T11:28:11;9.55;;;5.85;;
22778;SDS011;11556;51.194;3.800;2023-06-05T11:30:33;9.82;;;7.07;;
22778;SDS011;11556;51.194;3.800;2023-06-05T11:35:44;7.40;;;5.03;;
22778;SDS011;11556;51.194;3.800;2023-06-05T11:38:11;10.75;;;7.05;;
22778;SDS011;11556;51.194;3.800;2023-06-05T11:40:39;8.50;;;6.03;;
22778;SDS011;11556;51.194;3.800;2023-06-05T11:43:07;8.88;;;5.90;;
22778;SDS011;11556;51.194;3.800;2023-06-05T11:45:33;9.13;;;5.90;;
22778;SDS011;11556;51.194;3.800;2023-06-05T11:48:18;7.25;;;5.75;;
22778;SDS011;11556;51.194;3.800;2023-06-05T11:51:01;14.20;;;7.93;;
22778;SDS011;11556;51.194;3.800;2023-06-05T11:53:28;8.32;;;5.85;;
22778;SDS011;11556;51.194;3.800;2023-06-05T11:55:55;8.80;;;6.30;;
22778;SDS011;11556;51.194;3.800;2023-06-05T11:58:34;9.52;;;7.00;;
22778;SDS011;11556;51.194;3.800;2023-06-05T12:01:06;10.10;;;5.55;;
22778;SDS011;11556;51.194;3.800;2023-06-05T12:03:37;10.25;;;6.22;;
22778;SDS011;11556;51.194;3.800;2023-06-05T12:06:04;11.40;;;7.28;;
22778;SDS011;11556;51.194;3.800;2023-06-05T12:08:30;7.05;;;5.40;;
22778;SDS011;11556;51.194;3.800;2023-06-05T12:10:58;13.05;;;6.60;;
22778;SDS011;11556;51.194;3.800;2023-06-05T12:13:46;12.35;;;7.85;;
22778;SDS011;11556;51.194;3.800;2023-06-05T12:16:12;9.90;;;6.43;;
22778;SDS011;11556;51.194;3.800;2023-06-05T12:18:38;8.98;;;5.63;;
22778;SDS011;11556;51.194;3.800;2023-06-05T12:21:03;9.10;;;5.75;;
22778;SDS011;11556;51.194;3.800;2023-06-05T12:23:31;17.20;;;7.25;;
22778;SDS011;11556;51.194;3.800;2023-06-05T12:26:01;10.93;;;7.30;;
22778;SDS011;11556;51.194;3.800;2023-06-05T12:28:28;8.63;;;6.30;;
22778;SDS011;11556;51.194;3.800;2023-06-05T12:30:55;10.88;;;7.18;;
22778;SDS011;11556;51.194;3.800;2023-06-05T12:33:21;7.22;;;5.63;;
22778;SDS011;11556;51.194;3.800;2023-06-05T12:36:01;10.35;;;6.85;;
22778;SDS011;11556;51.194;3.800;2023-06-05T12:38:37;6.55;;;4.55;;
22778;SDS011;11556;51.194;3.800;2023-06-05T12:41:03;9.50;;;5.15;;
22778;SDS011;11556;51.194;3.800;2023-06-05T12:43:33;15.02;;;7.28;;
22778;SDS011;11556;51.194;3.800;2023-06-05T12:45:59;11.73;;;6.70;;
22778;SDS011;11556;51.194;3.800;2023-06-05T12:48:25;7.22;;;5.55;;
22778;SDS011;11556;51.194;3.800;2023-06-05T12:50:50;9.20;;;6.85;;
22778;SDS011;11556;51.194;3.800;2023-06-05T12:53:16;13.75;;;7.30;;
22778;SDS011;11556;51.194;3.800;2023-06-05T12:55:43;9.57;;;6.72;;
22778;SDS011;11556;51.194;3.800;2023-06-05T12:58:09;11.13;;;7.32;;
22778;SDS011;11556;51.194;3.800;2023-06-05T13:00:35;8.68;;;5.90;;
22778;SDS011;11556;51.194;3.800;2023-06-05T13:03:01;7.05;;;5.30;;
22778;SDS011;11556;51.194;3.800;2023-06-05T13:05:28;9.20;;;5.72;;
22778;SDS011;11556;51.194;3.800;2023-06-05T13:07:54;7.90;;;5.60;;
22778;SDS011;11556;51.194;3.800;2023-06-05T13:10:20;7.82;;;5.50;;
22778;SDS011;11556;51.194;3.800;2023-06-05T13:12:46;11.43;;;6.38;;
22778;SDS011;11556;51.194;3.800;2023-06-05T13:15:11;7.50;;;5.35;;
22778;SDS011;11556;51.194;3.800;2023-06-05T13:17:37;8.18;;;6.07;;
22778;SDS011;11556;51.194;3.800;2023-06-05T13:20:04;11.07;;;5.82;;
22778;SDS011;11556;51.194;3.800;2023-06-05T13:22:33;8.98;;;5.70;;
22778;SDS011;11556;51.194;3.800;2023-06-05T13:25:00;8.77;;;5.68;;
22778;SDS011;11556;51.194;3.800;2023-06-05T13:27:26;9.80;;;5.63;;
22778;SDS011;11556;51.194;3.800;2023-06-05T13:29:51;11.27;;;6.63;;
22778;SDS011;11556;51.194;3.800;2023-06-05T13:32:17;6.57;;;5.00;;
22778;SDS011;11556;51.194;3.800;2023-06-05T13:34:43;10.55;;;5.60;;
22778;SDS011;11556;51.194;3.800;2023-06-05T13:37:08;7.55;;;5.82;;
22778;SDS011;11556;51.194;3.800;2023-06-05T13:39:34;8.40;;;5.28;;
22778;SDS011;11556;51.194;3.800;2023-06-05T13:41:59;8.70;;;5.43;;
22778;SDS011;11556;51.194;3.800;2023-06-05T13:44:27;9.00;;;4.88;;
22778;SDS011;11556;51.194;3.800;2023-06-05T13:46:54;9.32;;;5.97;;
22778;SDS011;11556;51.194;3.800;2023-06-05T13:49:20;10.15;;;5.47;;
22778;SDS011;11556;51.194;3.800;2023-06-05T13:51:46;9.13;;;5.43;;
22778;SDS011;11556;51.194;3.800;2023-06-05T13:54:12;9.00;;;5.18;;
22778;SDS011;11556;51.194;3.800;2023-06-05T13:56:37;6.93;;;4.80;;
22778;SDS011;11556;51.194;3.800;2023-06-05T13:59:03;11.30;;;5.75;;
22778;SDS011;11556;51.194;3.800;2023-06-05T14:01:29;8.15;;;4.82;;
22778;SDS011;11556;51.194;3.800;2023-06-05T14:03:54;7.78;;;4.93;;
22778;SDS011;11556;51.194;3.800;2023-06-05T14:06:20;10.13;;;5.32;;
22778;SDS011;11556;51.194;3.800;2023-06-05T14:08:46;9.32;;;5.57;;
22778;SDS011;11556;51.194;3.800;2023-06-05T14:11:12;8.18;;;4.80;;
22778;SDS011;11556;51.194;3.800;2023-06-05T14:13:38;7.18;;;5.22;;
22778;SDS011;11556;51.194;3.800;2023-06-05T14:16:04;9.73;;;4.80;;
22778;SDS011;11556;51.194;3.800;2023-06-05T14:18:30;7.78;;;4.80;;
22778;SDS011;11556;51.194;3.800;2023-06-05T14:20:56;7.47;;;5.03;;
22778;SDS011;11556;51.194;3.800;2023-06-05T14:23:22;8.50;;;4.75;;
22778;SDS011;11556;51.194;3.800;2023-06-05T14:25:51;8.65;;;4.72;;
22778;SDS011;11556;51.194;3.800;2023-06-05T14:28:17;8.90;;;4.82;;
22778;SDS011;11556;51.194;3.800;2023-06-05T14:30:45;6.10;;;4.32;;
22778;SDS011;11556;51.194;3.800;2023-06-05T14:33:11;9.45;;;4.88;;
22778;SDS011;11556;51.194;3.800;2023-06-05T14:35:37;6.95;;;4.38;;
22778;SDS011;11556;51.194;3.800;2023-06-05T14:38:03;7.45;;;4.80;;
22778;SDS011;11556;51.194;3.800;2023-06-05T14:40:28;8.77;;;4.93;;
22778;SDS011;11556;51.194;3.800;2023-06-05T14:42:56;6.90;;;4.45;;
22778;SDS011;11556;51.194;3.800;2023-06-05T14:45:21;6.82;;;4.50;;
22778;SDS011;11556;51.194;3.800;2023-06-05T14:47:47;6.95;;;4.40;;
22778;SDS011;11556;51.194;3.800;2023-06-05T14:50:13;6.68;;;4.95;;
22778;SDS011;11556;51.194;3.800;2023-06-05T14:52:38;7.72;;;4.55;;
22778;SDS011;11556;51.194;3.800;2023-06-05T14:55:04;7.40;;;4.78;;
22778;SDS011;11556;51.194;3.800;2023-06-05T14:57:30;9.82;;;5.00;;
22778;SDS011;11556;51.194;3.800;2023-06-05T14:59:56;9.98;;;4.82;;
22778;SDS011;11556;51.194;3.800;2023-06-05T15:02:21;7.25;;;4.57;;
22778;SDS011;11556;51.194;3.800;2023-06-05T15:04:51;8.40;;;4.97;;
22778;SDS011;11556;51.194;3.800;2023-06-05T15:07:19;8.55;;;5.00;;
22778;SDS011;11556;51.194;3.800;2023-06-05T15:09:45;10.15;;;5.10;;
22778;SDS011;11556;51.194;3.800;2023-06-05T15:12:12;11.13;;;4.93;;
22778;SDS011;11556;51.194;3.800;2023-06-05T15:14:37;7.45;;;4.70;;
22778;SDS011;11556;51.194;3.800;2023-06-05T15:17:03;11.85;;;4.93;;